Time;durP1;ratioP1;P1;durP2;ratioP2;P2;SDS_P1;SDS_P2;PMS_P1;PMS_P2;Temp;Humidity;BMP_temperature;BMP_pressure;BME280_temperature;BME280_humidity;BME280_pressure;Samples;Min_cycle;Max_cycle;Signal;HPM_P1;HPM_P2
2023/08/07 00:01:52;;;;;;;6.20;3.30;;;;;;;28.83;67.30;98956.26;108339;1283;22158;-60
2023/08/07 00:04:18;;;;;;;5.90;3.00;;;;;;;28.78;67.03;98964.72;108351;1282;21985;-73
2023/08/07 00:06:43;;;;;;;4.20;2.80;;;;;;;28.70;66.52;98969.45;108391;1280;21982;-74
2023/08/07 00:09:09;;;;;;;5.40;3.40;;;;;;;28.61;66.11;98962.98;108363;1282;22022;-73
2023/08/07 00:11:34;;;;;;;4.80;2.80;;;;;;;28.54;65.82;98961.41;108132;1284;22021;-60
2023/08/07 00:14:00;;;;;;;6.60;3.10;;;;;;;28.49;65.92;98959.44;108290;1283;21986;-59
2023/08/07 00:16:26;;;;;;;8.10;3.00;;;;;;;28.43;65.81;98958.64;108375;1282;21993;-61
2023/08/07 00:18:55;;;;;;;6.40;3.50;;;;;;;28.37;65.83;98962.30;108371;1277;21993;-60
2023/08/07 00:21:22;;;;;;;6.70;3.70;;;;;;;28.32;65.85;98962.86;108344;1282;21986;-73
2023/08/07 00:23:49;;;;;;;5.40;3.40;;;;;;;28.28;65.78;98960.41;108371;1282;21990;-73
2023/08/07 00:26:15;;;;;;;7.10;3.30;;;;;;;28.22;65.79;98959.85;108132;1281;23608;-60
2023/08/07 00:28:41;;;;;;;6.60;3.60;;;;;;;28.18;65.66;98958.98;108352;1277;21966;-60
2023/08/07 00:31:06;;;;;;;6.00;3.90;;;;;;;28.15;65.87;98962.91;108353;1282;21984;-73
2023/08/07 00:33:32;;;;;;;6.70;3.80;;;;;;;28.09;66.02;98967.86;108452;1278;21985;-60
2023/08/07 00:35:57;;;;;;;6.70;4.00;;;;;;;28.05;65.79;98970.48;108345;1281;21986;-73
2023/08/07 00:38:23;;;;;;;7.50;3.40;;;;;;;28.01;65.81;98966.59;108379;1282;23631;-73
2023/08/07 00:40:49;;;;;;;9.70;4.30;;;;;;;27.98;65.75;98966.84;108348;1282;22041;-59
2023/08/07 00:43:14;;;;;;;5.70;3.80;;;;;;;27.95;65.49;98967.92;108453;1274;22038;-73
2023/08/07 00:45:42;;;;;;;5.50;4.10;;;;;;;27.93;65.49;98974.08;108463;1281;21992;-59
2023/08/07 00:48:07;;;;;;;9.00;3.70;;;;;;;27.91;65.55;98976.06;108522;1280;21992;-60
2023/08/07 00:50:33;;;;;;;7.80;4.30;;;;;;;27.90;65.52;98976.02;108246;1282;21995;-61
2023/08/07 00:52:59;;;;;;;6.10;3.80;;;;;;;27.88;65.77;98974.61;108186;1282;21978;-59
2023/08/07 00:55:25;;;;;;;7.40;4.40;;;;;;;27.85;65.55;98972.44;108498;1277;23702;-60
2023/08/07 00:57:51;;;;;;;7.00;4.50;;;;;;;27.81;65.83;98969.75;108515;1281;21980;-59
2023/08/07 01:00:17;;;;;;;7.10;4.20;;;;;;;27.76;65.68;98965.99;108482;1282;22000;-74
2023/08/07 01:02:43;;;;;;;5.80;4.10;;;;;;;27.71;66.00;98965.27;108455;1280;21981;-73
2023/08/07 01:05:09;;;;;;;6.60;4.70;;;;;;;27.67;65.86;98966.45;108427;1277;22000;-73
2023/08/07 01:07:34;;;;;;;7.20;5.10;;;;;;;27.63;66.10;98967.74;108442;1281;21978;-59
2023/08/07 01:10:03;;;;;;;7.20;4.60;;;;;;;27.59;66.69;98964.31;108488;1271;22030;-73
2023/08/07 01:12:35;;;;;;;8.50;4.70;;;;;;;27.56;66.76;98968.27;108290;1278;21975;-60
2023/08/07 01:15:07;;;;;;;6.70;4.90;;;;;;;27.53;67.33;98966.66;108418;1274;21961;-73
2023/08/07 01:17:34;;;;;;;10.80;5.10;;;;;;;27.47;67.12;98963.21;108538;1281;22037;-60
2023/08/07 01:20:00;;;;;;;11.40;4.90;;;;;;;27.43;66.94;98961.66;108292;1281;21993;-74
2023/08/07 01:22:25;;;;;;;8.50;4.60;;;;;;;27.42;66.92;98967.77;108454;1282;21992;-74
2023/08/07 01:24:51;;;;;;;6.60;4.60;;;;;;;27.38;67.16;98967.05;108427;1279;22892;-74
2023/08/07 01:27:17;;;;;;;7.00;4.60;;;;;;;27.35;67.31;98965.56;108402;1282;21997;-73
2023/08/07 01:30:09;;;;;;;7.50;4.50;;;;;;;27.35;67.51;98967.20;108384;1277;23634;-74
2023/08/07 01:33:01;;;;;;;5.50;4.60;;;;;;;27.33;67.30;98969.08;108380;1281;21992;-59
2023/08/07 01:35:29;;;;;;;5.90;3.90;;;;;;;27.28;68.09;98967.37;108478;1281;22431;-69
2023/08/07 01:37:56;;;;;;;5.10;4.20;;;;;;;27.25;68.06;98966.44;108508;1282;21987;-60
2023/08/07 01:40:21;;;;;;;5.50;4.50;;;;;;;27.21;69.82;98969.52;108450;1281;21996;-59
2023/08/07 01:42:47;;;;;;;7.30;4.50;;;;;;;27.14;69.44;98976.02;108566;1282;22450;-60
2023/08/07 01:45:13;;;;;;;6.70;4.10;;;;;;;27.10;68.83;98974.84;108291;1280;21984;-59
2023/08/07 01:47:38;;;;;;;8.20;4.40;;;;;;;27.07;69.09;98974.10;108507;1277;21985;-74
2023/08/07 01:50:05;;;;;;;8.50;3.90;;;;;;;27.06;69.33;98972.25;108382;1280;24410;-75
2023/08/07 01:52:30;;;;;;;7.50;4.10;;;;;;;27.07;69.35;98970.88;108379;1281;22074;-59
2023/08/07 01:54:56;;;;;;;6.80;4.20;;;;;;;27.08;68.76;98973.81;108492;1281;22074;-59
2023/08/07 01:57:22;;;;;;;5.20;4.00;;;;;;;27.08;69.81;98975.61;108530;1277;21982;-59
2023/08/07 01:59:47;;;;;;;7.40;4.20;;;;;;;27.05;68.98;98981.16;108476;1271;23021;-60
2023/08/07 02:02:13;;;;;;;7.10;3.90;;;;;;;27.04;69.04;98978.52;108445;1281;22446;-75
2023/08/07 02:04:39;;;;;;;5.60;4.10;;;;;;;27.02;69.44;98977.99;108452;1281;22928;-58
2023/08/07 02:07:04;;;;;;;5.30;4.10;;;;;;;27.00;68.81;98981.66;108488;1280;22041;-75
2023/08/07 02:09:30;;;;;;;6.00;4.00;;;;;;;27.00;68.70;98988.27;108184;1273;22752;-70
2023/08/07 02:11:56;;;;;;;7.50;3.90;;;;;;;27.01;68.81;98978.44;108442;1277;22450;-74
2023/08/07 02:14:21;;;;;;;8.80;4.00;;;;;;;27.00;68.68;98981.06;108442;1277;21982;-59
2023/08/07 02:16:47;;;;;;;5.20;4.70;;;;;;;26.99;68.82;98977.21;108497;1277;21983;-76
2023/08/07 02:19:12;;;;;;;8.90;4.40;;;;;;;26.98;68.62;98970.79;108457;1280;23450;-76
2023/08/07 02:21:38;;;;;;;7.50;4.10;;;;;;;26.96;68.99;98967.95;108442;1281;23715;-75
2023/08/07 02:24:04;;;;;;;6.00;4.40;;;;;;;26.94;68.82;98973.80;108511;1281;23616;-59
2023/08/07 02:26:30;;;;;;;6.10;3.80;;;;;;;26.94;68.55;98981.70;108497;1281;22043;-77
2023/08/07 02:28:55;;;;;;;6.20;3.90;;;;;;;26.92;68.76;98986.05;108241;1282;22153;-76
2023/08/07 02:31:21;;;;;;;6.40;4.20;;;;;;;26.91;68.56;98990.66;108366;1276;23650;-60
2023/08/07 02:33:46;;;;;;;4.60;3.80;;;;;;;26.89;68.54;99002.73;108484;1279;21983;-76
2023/08/07 02:36:12;;;;;;;7.00;4.10;;;;;;;26.89;68.46;99007.27;108496;1275;24076;-59
2023/08/07 02:38:38;;;;;;;6.00;3.90;;;;;;;26.87;68.84;99012.48;108501;1279;23709;-58
2023/08/07 02:41:03;;;;;;;10.00;4.00;;;;;;;26.85;68.42;99013.90;108535;1281;21977;-75
2023/08/07 02:43:29;;;;;;;7.40;4.40;;;;;;;26.85;68.59;99014.16;108421;1282;21984;-59
2023/08/07 02:45:54;;;;;;;7.20;4.10;;;;;;;26.83;68.75;99010.34;108457;1278;22008;-65
2023/08/07 02:48:20;;;;;;;8.20;4.30;;;;;;;26.81;68.80;99011.77;108474;1281;21985;-59
2023/08/07 02:50:46;;;;;;;5.90;4.20;;;;;;;26.80;68.84;99014.80;108433;1278;21985;-59
2023/08/07 02:53:12;;;;;;;5.50;4.10;;;;;;;26.74;70.74;99010.33;108487;1281;21982;-73
2023/08/07 02:55:38;;;;;;;6.70;4.50;;;;;;;26.67;69.61;99011.63;108146;1281;22917;-76
2023/08/07 02:58:03;;;;;;;6.20;4.00;;;;;;;26.63;69.46;99017.04;108227;1281;21980;-62
2023/08/07 03:00:29;;;;;;;9.10;4.30;;;;;;;26.65;69.42;99017.89;108476;1281;22020;-76
2023/08/07 03:02:54;;;;;;;6.60;5.10;;;;;;;26.68;69.27;99021.70;108452;1281;23170;-75
2023/08/07 03:05:20;;;;;;;7.10;4.40;;;;;;;26.71;69.25;99021.81;108408;1278;23637;-58
2023/08/07 03:07:45;;;;;;;6.20;4.70;;;;;;;26.72;69.19;99020.58;108405;1277;21982;-59
2023/08/07 03:10:11;;;;;;;8.00;5.00;;;;;;;26.74;69.18;99030.27;108400;1277;22035;-76
2023/08/07 03:12:38;;;;;;;6.60;4.60;;;;;;;26.75;69.28;99033.11;108407;1281;23711;-59
2023/08/07 03:15:05;;;;;;;7.70;5.50;;;;;;;26.72;69.57;99034.23;108445;1277;22018;-76
2023/08/07 03:17:31;;;;;;;9.70;4.60;;;;;;;26.71;69.91;99035.98;108250;1282;23815;-75
2023/08/07 03:19:57;;;;;;;7.40;4.80;;;;;;;26.70;70.06;99043.08;108497;1281;22107;-76
2023/08/07 03:22:23;;;;;;;6.90;4.40;;;;;;;26.71;69.94;99041.52;108487;1277;21990;-76
2023/08/07 03:24:48;;;;;;;16.80;5.70;;;;;;;26.74;70.49;99043.80;108366;1283;22068;-74
2023/08/07 03:27:14;;;;;;;8.40;4.80;;;;;;;26.76;70.34;99047.77;108394;1275;21983;-74
2023/08/07 03:29:40;;;;;;;7.80;6.20;;;;;;;26.78;70.70;99053.14;108401;1277;21983;-59
2023/08/07 03:32:06;;;;;;;7.30;5.00;;;;;;;26.79;71.73;99049.73;108438;1280;21983;-74
2023/08/07 03:34:32;;;;;;;6.70;5.40;;;;;;;26.80;72.64;99051.98;108440;1281;21985;-75
2023/08/07 03:36:59;;;;;;;8.70;4.90;;;;;;;26.81;72.55;99055.66;108380;1282;23671;-58
2023/08/07 03:39:25;;;;;;;6.80;5.40;;;;;;;26.81;72.61;99054.66;108409;1282;21998;-59
2023/08/07 03:41:50;;;;;;;6.20;5.50;;;;;;;26.81;72.62;99052.98;108430;1277;21979;-59
2023/08/07 03:44:16;;;;;;;9.30;6.20;;;;;;;26.83;73.06;99055.91;108488;1276;22152;-73
2023/08/07 03:46:42;;;;;;;7.30;5.20;;;;;;;26.85;74.50;99058.04;108355;1281;21981;-75
2023/08/07 03:49:07;;;;;;;6.10;4.60;;;;;;;26.88;73.77;99059.34;108521;1282;21990;-76
2023/08/07 03:51:33;;;;;;;7.00;5.30;;;;;;;26.91;74.68;99064.05;108518;1282;22001;-59
2023/08/07 03:53:59;;;;;;;5.90;4.50;;;;;;;26.95;74.49;99066.53;108483;1282;22190;-75
2023/08/07 03:56:24;;;;;;;7.80;5.30;;;;;;;27.01;74.43;99070.03;108458;1276;21986;-59
2023/08/07 03:58:50;;;;;;;6.30;5.10;;;;;;;27.07;74.01;99075.73;108469;1276;21983;-75
2023/08/07 04:01:16;;;;;;;8.20;5.70;;;;;;;27.10;74.49;99076.77;108477;1280;21988;-75
2023/08/07 04:03:42;;;;;;;7.90;5.70;;;;;;;27.13;74.97;99078.24;108453;1278;23354;-75
2023/08/07 04:06:08;;;;;;;9.30;6.40;;;;;;;27.12;76.89;99083.33;108352;1277;21947;-73
2023/08/07 04:08:33;;;;;;;7.50;6.00;;;;;;;27.14;74.85;99096.09;108467;1282;23628;-60
2023/08/07 04:11:05;;;;;;;9.40;6.10;;;;;;;27.14;75.76;99102.73;108433;1277;22042;-75
2023/08/07 04:13:31;;;;;;;6.20;5.60;;;;;;;27.15;75.54;99109.30;108500;1277;23065;-74
2023/08/07 04:15:57;;;;;;;7.20;6.10;;;;;;;27.19;75.47;99112.36;108463;1278;22731;-59
2023/08/07 04:18:22;;;;;;;8.30;5.70;;;;;;;27.22;75.03;99111.52;108457;1279;22035;-74
2023/08/07 04:20:52;;;;;;;9.50;5.60;;;;;;;27.25;74.34;99113.02;108158;1282;21992;-59
2023/08/07 04:23:18;;;;;;;11.10;6.00;;;;;;;27.27;75.00;99116.05;108389;1277;21967;-60
2023/08/07 04:25:46;;;;;;;9.90;5.90;;;;;;;27.31;74.55;99117.09;108598;1281;21972;-74
2023/08/07 04:28:13;;;;;;;6.80;5.60;;;;;;;27.36;74.81;99115.34;108737;1277;23608;-74
2023/08/07 04:30:40;;;;;;;7.00;6.20;;;;;;;27.42;74.45;99115.91;108479;1282;21980;-75
2023/08/07 04:33:05;;;;;;;8.20;6.10;;;;;;;27.51;74.28;99120.31;108582;1277;21983;-72
2023/08/07 04:35:31;;;;;;;8.60;6.30;;;;;;;27.58;74.97;99120.16;108502;1281;22005;-72
2023/08/07 04:37:57;;;;;;;9.80;6.50;;;;;;;27.65;74.54;99118.71;108548;1272;22436;-59
2023/08/07 04:40:22;;;;;;;16.40;6.90;;;;;;;27.81;74.82;99115.55;108418;1277;21991;-69
2023/08/07 04:42:49;;;;;;;9.60;5.70;;;;;;;28.07;75.00;99115.05;108401;1281;22060;-69
2023/08/07 04:45:14;;;;;;;13.10;5.80;;;;;;;28.32;73.99;99114.89;108355;1277;21984;-59
2023/08/07 04:47:41;;;;;;;8.90;5.80;;;;;;;28.53;73.04;99120.25;108417;1281;22272;-73
2023/08/07 04:50:08;;;;;;;10.90;5.70;;;;;;;28.63;71.97;99126.54;108256;1281;22480;-73
2023/08/07 04:52:34;;;;;;;10.70;5.10;;;;;;;28.61;70.61;99130.02;108504;1277;23735;-59
2023/08/07 04:55:00;;;;;;;5.70;5.00;;;;;;;28.57;70.29;99129.95;108429;1276;22061;-60
2023/08/07 04:57:25;;;;;;;8.00;4.90;;;;;;;28.55;69.96;99126.78;108432;1281;21983;-72
2023/08/07 04:59:52;;;;;;;10.90;5.40;;;;;;;28.54;70.23;99119.14;108436;1282;21990;-60
2023/08/07 05:02:17;;;;;;;8.90;5.40;;;;;;;28.54;69.68;99121.62;109791;1272;21997;-59
2023/08/07 05:04:43;;;;;;;6.00;4.80;;;;;;;28.54;69.60;99130.85;108424;1277;22100;-71
2023/08/07 05:07:09;;;;;;;5.60;5.00;;;;;;;28.57;69.49;99135.41;108403;1280;21980;-72
2023/08/07 05:09:35;;;;;;;5.80;4.50;;;;;;;28.61;69.25;99133.26;108292;1280;21978;-73
2023/08/07 05:12:01;;;;;;;5.30;4.70;;;;;;;28.69;69.02;99130.84;108497;1278;23638;-59
2023/08/07 05:14:28;;;;;;;7.00;4.60;;;;;;;28.78;69.13;99134.91;108394;1279;21939;-71
2023/08/07 05:16:54;;;;;;;5.80;4.50;;;;;;;28.81;68.03;99137.48;108424;1282;21994;-62
2023/08/07 05:19:20;;;;;;;7.10;4.50;;;;;;;28.85;67.83;99134.91;108445;1276;22037;-59
2023/08/07 05:21:49;;;;;;;10.00;5.20;;;;;;;28.95;68.09;99126.09;108448;1273;21982;-60
2023/08/07 05:24:15;;;;;;;8.00;4.40;;;;;;;29.06;67.72;99120.68;108452;1281;21980;-71
2023/08/07 05:26:41;;;;;;;6.90;4.70;;;;;;;29.18;67.14;99119.20;108513;1281;21997;-72
2023/08/07 05:29:07;;;;;;;5.10;3.70;;;;;;;29.30;66.60;99121.91;108412;1277;21983;-71
2023/08/07 05:31:33;;;;;;;6.70;4.20;;;;;;;29.40;65.92;99120.19;108414;1277;21990;-66
2023/08/07 05:33:59;;;;;;;7.60;3.80;;;;;;;29.48;65.05;99123.70;108437;1277;22005;-71
2023/08/07 05:36:25;;;;;;;4.30;3.60;;;;;;;29.56;64.25;99127.18;108474;1281;21983;-70
2023/08/07 05:38:50;;;;;;;4.90;3.90;;;;;;;29.65;63.98;99128.30;108293;1277;21986;-59
2023/08/07 05:41:16;;;;;;;4.80;3.80;;;;;;;29.74;63.38;99132.39;108383;1274;21993;-60
2023/08/07 05:43:42;;;;;;;10.10;3.70;;;;;;;29.84;62.56;99132.56;108436;1281;21981;-70
2023/08/07 05:46:07;;;;;;;5.80;3.30;;;;;;;29.88;61.09;99133.86;108413;1277;21987;-59
2023/08/07 05:48:33;;;;;;;4.70;3.30;;;;;;;29.96;60.98;99140.56;108411;1280;21988;-71
2023/08/07 05:50:59;;;;;;;4.90;3.50;;;;;;;30.08;60.50;99138.29;108450;1281;21994;-59
2023/08/07 05:53:24;;;;;;;6.90;3.50;;;;;;;30.17;59.31;99144.33;108426;1273;21979;-62
2023/08/07 05:55:50;;;;;;;4.00;3.20;;;;;;;30.21;58.42;99147.46;108462;1281;21986;-73
2023/08/07 05:58:16;;;;;;;4.80;3.40;;;;;;;30.34;58.78;99152.52;108317;1282;21986;-72
2023/08/07 06:00:41;;;;;;;5.60;3.50;;;;;;;30.49;58.42;99154.30;108397;1276;21978;-70
2023/08/07 06:03:07;;;;;;;5.30;3.50;;;;;;;30.60;56.34;99156.73;108462;1276;21974;-73
2023/08/07 06:05:33;;;;;;;5.90;2.90;;;;;;;30.66;56.42;99157.40;108426;1277;21980;-70
2023/08/07 06:07:59;;;;;;;4.80;3.20;;;;;;;30.76;57.08;99159.91;108412;1270;21977;-68
2023/08/07 06:10:24;;;;;;;5.90;3.30;;;;;;;30.86;56.87;99164.13;108432;1277;21980;-58
2023/08/07 06:12:50;;;;;;;5.30;3.30;;;;;;;30.95;55.85;99168.09;108446;1281;21970;-68
2023/08/07 06:15:16;;;;;;;9.50;3.20;;;;;;;31.05;55.75;99175.52;108411;1277;23605;-59
2023/08/07 06:17:41;;;;;;;17.50;3.30;;;;;;;31.19;55.73;99175.37;108505;1281;21985;-70
2023/08/07 06:20:09;;;;;;;5.40;3.00;;;;;;;31.33;55.55;99179.09;108336;1282;21985;-68
2023/08/07 06:22:35;;;;;;;5.80;3.30;;;;;;;31.46;54.04;99181.80;108461;1280;21982;-69
2023/08/07 06:25:01;;;;;;;4.20;2.70;;;;;;;31.44;52.01;99182.94;108452;1281;22723;-65
2023/08/07 06:27:27;;;;;;;11.30;3.20;;;;;;;31.42;52.47;99181.52;108438;1280;22174;-61
2023/08/07 06:29:52;;;;;;;8.40;3.20;;;;;;;31.45;52.17;99182.99;108443;1270;21980;-59
2023/08/07 06:32:18;;;;;;;10.70;2.90;;;;;;;31.52;52.17;99181.20;108426;1277;21991;-72
2023/08/07 06:34:44;;;;;;;3.30;2.50;;;;;;;31.65;52.09;99182.77;108444;1281;22003;-70
2023/08/07 06:37:09;;;;;;;6.90;2.70;;;;;;;31.77;51.77;99190.56;108441;1277;21992;-71
2023/08/07 06:39:35;;;;;;;10.60;3.40;;;;;;;31.88;50.96;99191.30;108418;1280;21989;-72
2023/08/07 06:42:01;;;;;;;5.40;2.60;;;;;;;31.89;49.55;99197.63;108414;1280;21991;-69
2023/08/07 06:44:28;;;;;;;5.30;2.80;;;;;;;31.90;49.93;99204.84;108483;1277;21979;-70
2023/08/07 06:46:53;;;;;;;6.10;3.10;;;;;;;32.05;50.34;99203.89;108426;1273;23640;-59
2023/08/07 06:49:19;;;;;;;9.80;2.70;;;;;;;32.16;48.49;99209.79;108480;1277;21986;-59
2023/08/07 06:51:45;;;;;;;6.80;2.70;;;;;;;32.18;47.41;99210.11;108449;1270;22020;-60
2023/08/07 06:54:10;;;;;;;5.30;2.90;;;;;;;32.23;47.83;99220.46;108369;1277;22149;-71
2023/08/07 06:56:38;;;;;;;6.20;2.80;;;;;;;32.30;47.79;99219.06;108325;1283;24321;-59
2023/08/07 06:59:04;;;;;;;2.90;2.40;;;;;;;32.42;47.91;99213.95;108530;1276;22020;-59
2023/08/07 07:01:29;;;;;;;5.20;2.40;;;;;;;32.57;47.34;99215.52;108423;1281;22034;-59
2023/08/07 07:03:55;;;;;;;5.60;2.40;;;;;;;32.64;46.14;99221.81;108441;1282;21980;-71
2023/08/07 07:06:21;;;;;;;3.80;2.40;;;;;;;32.64;45.84;99231.20;108224;1278;21980;-60
2023/08/07 07:08:46;;;;;;;2.70;2.10;;;;;;;32.64;45.41;99231.75;108359;1277;21983;-70
2023/08/07 07:11:12;;;;;;;5.20;2.20;;;;;;;32.74;46.09;99232.98;108370;1281;21988;-71
2023/08/07 07:13:38;;;;;;;4.10;1.60;;;;;;;32.86;44.81;99238.02;108462;1277;21988;-59
2023/08/07 07:16:03;;;;;;;5.30;2.20;;;;;;;32.79;43.56;99245.55;108390;1280;22453;-59
2023/08/07 07:18:29;;;;;;;2.80;2.10;;;;;;;32.79;44.54;99250.61;108354;1274;22046;-59
2023/08/07 07:21:01;;;;;;;6.60;2.30;;;;;;;32.87;45.22;99253.95;108366;1281;21991;-59
2023/08/07 07:23:27;;;;;;;2.90;2.00;;;;;;;33.06;45.24;99255.34;108504;1281;23085;-60
2023/08/07 07:25:52;;;;;;;3.80;2.20;;;;;;;33.17;44.46;99263.74;108440;1281;21983;-70
2023/08/07 07:28:18;;;;;;;11.70;2.40;;;;;;;33.09;44.07;99269.80;108421;1276;22003;-60
2023/08/07 07:30:44;;;;;;;3.90;1.90;;;;;;;32.92;43.62;99272.67;108376;1277;22077;-70
2023/08/07 07:33:09;;;;;;;5.70;2.00;;;;;;;32.81;43.71;99275.79;108655;1280;21997;-59
2023/08/07 07:35:38;;;;;;;4.40;2.40;;;;;;;32.80;44.02;99280.83;108392;1270;21989;-72
2023/08/07 07:38:05;;;;;;;4.30;2.50;;;;;;;32.91;44.49;99278.77;108428;1277;21980;-70
2023/08/07 07:40:31;;;;;;;6.60;2.10;;;;;;;33.13;44.62;99280.10;108399;1281;23035;-69
2023/08/07 07:42:57;;;;;;;3.60;2.00;;;;;;;33.30;43.43;99283.38;108441;1281;23648;-71
2023/08/07 07:45:22;;;;;;;3.70;2.00;;;;;;;33.45;43.50;99282.23;108485;1281;21988;-70
2023/08/07 07:47:48;;;;;;;3.00;2.20;;;;;;;33.53;42.60;99289.44;108430;1281;21979;-59
2023/08/07 07:50:13;;;;;;;5.40;2.40;;;;;;;33.66;42.26;99286.77;108424;1271;23445;-59
2023/08/07 07:52:39;;;;;;;3.80;2.20;;;;;;;33.77;42.10;99287.29;108460;1276;21981;-71
2023/08/07 07:55:05;;;;;;;3.20;2.10;;;;;;;33.90;42.17;99283.84;108397;1280;21978;-58
2023/08/07 07:57:31;;;;;;;3.30;2.20;;;;;;;34.05;41.89;99284.63;108445;1282;21997;-60
2023/08/07 07:59:57;;;;;;;2.50;1.70;;;;;;;34.20;41.68;99293.80;108509;1274;21988;-72
2023/08/07 08:02:25;;;;;;;4.60;2.10;;;;;;;34.31;40.52;99297.52;108088;1274;21969;-59
2023/08/07 08:04:52;;;;;;;3.90;1.90;;;;;;;34.30;40.70;99304.77;108476;1271;22001;-70
2023/08/07 08:07:18;;;;;;;2.80;1.60;;;;;;;34.24;40.33;99309.11;108314;1281;21990;-59
2023/08/07 08:09:44;;;;;;;3.20;2.00;;;;;;;34.09;39.68;99312.41;108455;1280;23641;-59
2023/08/07 08:12:10;;;;;;;2.70;1.80;;;;;;;33.79;39.55;99319.04;108423;1281;21984;-59
2023/08/07 08:14:38;;;;;;;4.10;1.70;;;;;;;33.66;40.26;99321.94;108419;1276;21983;-73
2023/08/07 08:17:04;;;;;;;3.30;2.00;;;;;;;33.59;40.49;99316.84;108451;1281;23193;-73
2023/08/07 08:19:30;;;;;;;2.90;1.60;;;;;;;33.58;40.52;99319.09;108210;1277;21993;-71
2023/08/07 08:21:56;;;;;;;3.70;1.70;;;;;;;33.60;40.68;99325.10;108352;1282;21985;-71
2023/08/07 08:24:21;;;;;;;6.40;2.10;;;;;;;33.69;40.37;99317.36;108396;1281;23693;-59
2023/08/07 08:26:47;;;;;;;4.40;2.10;;;;;;;33.85;40.40;99319.66;108341;1280;21989;-72
2023/08/07 08:29:14;;;;;;;3.60;2.10;;;;;;;33.96;40.03;99328.95;108453;1281;21990;-71
2023/08/07 08:31:40;;;;;;;5.10;1.90;;;;;;;33.99;39.96;99331.13;108422;1277;21983;-60
2023/08/07 08:34:05;;;;;;;9.00;2.80;;;;;;;33.98;39.47;99326.86;108378;1275;21990;-71
2023/08/07 08:36:31;;;;;;;3.60;2.20;;;;;;;34.19;40.26;99322.68;108423;1276;21986;-60
2023/08/07 08:38:56;;;;;;;6.10;2.00;;;;;;;34.48;39.18;99318.48;108412;1277;21990;-59
2023/08/07 08:41:24;;;;;;;4.10;1.80;;;;;;;34.68;38.70;99319.73;108340;1277;21983;-71
2023/08/07 08:43:53;;;;;;;7.00;2.10;;;;;;;34.88;38.94;99326.55;108115;1280;21981;-71
2023/08/07 08:46:21;;;;;;;3.90;2.20;;;;;;;35.11;38.81;99326.66;108416;1277;21986;-60
2023/08/07 08:48:51;;;;;;;3.30;1.90;;;;;;;35.26;38.60;99320.64;108431;1273;21981;-61
2023/08/07 08:51:18;;;;;;;3.70;1.90;;;;;;;35.40;38.55;99320.17;108456;1277;21982;-59
2023/08/07 08:53:49;;;;;;;3.70;2.30;;;;;;;35.34;37.85;99330.55;108283;1279;21976;-71
2023/08/07 08:56:16;;;;;;;3.10;2.00;;;;;;;35.21;38.23;99331.89;108048;1282;22023;-60
2023/08/07 08:58:41;;;;;;;4.10;2.00;;;;;;;35.17;38.32;99335.16;108476;1282;21983;-60
2023/08/07 09:01:08;;;;;;;2.80;1.90;;;;;;;35.22;38.18;99331.30;108297;1282;21982;-69
2023/08/07 09:03:33;;;;;;;3.30;1.70;;;;;;;35.48;37.39;99331.05;108351;1277;23688;-59
2023/08/07 09:05:59;;;;;;;3.00;2.00;;;;;;;35.63;35.80;99337.65;108464;1275;21983;-59
2023/08/07 09:08:26;;;;;;;3.60;2.00;;;;;;;35.69;35.67;99339.52;108410;1282;22158;-60
2023/08/07 09:10:52;;;;;;;4.40;2.20;;;;;;;35.80;35.89;99338.89;108422;1276;21984;-71
2023/08/07 09:13:18;;;;;;;3.20;2.10;;;;;;;35.93;35.93;99344.00;108167;1276;21988;-60
2023/08/07 09:15:47;;;;;;;4.10;1.80;;;;;;;35.97;35.72;99345.86;108077;1283;22077;-60
2023/08/07 09:18:13;;;;;;;2.10;1.60;;;;;;;35.96;36.05;99348.27;108115;1273;21966;-72
2023/08/07 09:20:42;;;;;;;3.70;2.30;;;;;;;35.96;35.20;99348.81;108147;1276;21992;-60
2023/08/07 09:23:07;;;;;;;3.60;1.70;;;;;;;35.90;34.44;99355.48;108530;1281;21992;-59
2023/08/07 09:25:34;;;;;;;8.50;2.20;;;;;;;35.93;35.39;99362.70;108403;1276;21990;-60
2023/08/07 09:28:04;;;;;;;5.50;2.50;;;;;;;35.99;34.83;99365.45;108467;1280;21980;-60
2023/08/07 09:30:30;;;;;;;;;;;;;;;35.94;34.52;99366.14;108438;1275;21977;-60
2023/08/07 09:32:59;;;;;;;4.20;2.20;;;;;;;35.87;34.49;99368.66;108426;1274;21983;-60
2023/08/07 09:35:25;;;;;;;3.60;2.10;;;;;;;35.77;34.45;99370.25;108329;1273;22083;-71
2023/08/07 09:37:50;;;;;;;4.20;2.10;;;;;;;35.71;35.43;99367.34;108418;1269;23712;-60
2023/08/07 09:40:17;;;;;;;2.70;2.20;;;;;;;35.80;34.80;99369.21;108365;1276;23829;-71
2023/08/07 09:42:43;;;;;;;2.80;2.30;;;;;;;35.98;34.40;99373.79;108238;1282;22035;-60
2023/08/07 09:45:22;;;;;;;2.40;1.90;;;;;;;36.27;34.80;99377.70;108415;1272;21980;-59
2023/08/07 09:47:57;;;;;;;35.30;4.50;;;;;;;36.45;35.01;99382.91;108431;1281;21976;-60
2023/08/07 09:50:22;;;;;;;4.80;2.20;;;;;;;36.44;34.91;99394.02;108388;1277;21996;-60
2023/08/07 09:52:49;;;;;;;3.10;2.20;;;;;;;36.25;34.65;99396.84;108443;1281;21985;-61
2023/08/07 09:55:15;;;;;;;5.40;2.30;;;;;;;36.04;34.97;99396.75;108517;1276;21990;-73
2023/08/07 09:57:43;;;;;;;3.30;2.40;;;;;;;35.82;34.94;99401.80;108612;1281;23634;-72
2023/08/07 10:00:14;;;;;;;3.60;2.10;;;;;;;35.51;34.99;99405.55;108590;1281;23732;-61
2023/08/07 10:02:39;;;;;;;3.70;2.20;;;;;;;35.23;35.63;99403.92;108578;1270;21981;-61
2023/08/07 10:05:06;;;;;;;4.00;2.30;;;;;;;35.08;36.00;99409.30;108580;1281;21982;-72
2023/08/07 10:07:32;;;;;;;5.40;2.40;;;;;;;34.98;35.95;99414.91;108402;1283;21989;-61
2023/08/07 10:10:00;;;;;;;6.80;2.30;;;;;;;34.98;36.13;99419.79;108547;1276;21985;-59
2023/08/07 10:12:26;;;;;;;5.40;2.60;;;;;;;35.12;35.69;99419.69;108333;1281;21986;-71
2023/08/07 10:14:53;;;;;;;5.10;2.40;;;;;;;35.42;35.62;99416.84;108593;1269;23106;-70
2023/08/07 10:17:20;;;;;;;3.20;2.20;;;;;;;35.67;34.95;99420.30;108499;1280;21987;-71
2023/08/07 10:19:46;;;;;;;3.80;2.30;;;;;;;35.73;34.88;99423.48;108639;1281;23754;-72
2023/08/07 10:22:12;;;;;;;7.20;2.40;;;;;;;35.70;35.25;99432.23;108621;1275;23079;-60
2023/08/07 10:24:38;;;;;;;4.60;1.90;;;;;;;35.60;34.92;99436.27;108514;1280;21992;-60
2023/08/07 10:27:07;;;;;;;65.80;6.50;;;;;;;35.45;34.88;99441.89;108549;1281;21986;-60
2023/08/07 10:29:33;;;;;;;3.00;2.10;;;;;;;35.34;34.67;99445.23;108332;1280;21986;-72
2023/08/07 10:31:58;;;;;;;7.00;2.20;;;;;;;35.34;34.60;99445.48;108425;1280;21982;-61
2023/08/07 10:34:24;;;;;;;4.70;2.30;;;;;;;35.43;34.57;99442.22;108247;1282;22003;-71
2023/08/07 10:36:49;;;;;;;3.00;2.10;;;;;;;35.54;34.21;99437.68;108207;1279;24189;-59
2023/08/07 10:39:15;;;;;;;5.10;2.30;;;;;;;35.74;34.07;99436.68;108354;1270;21987;-59
2023/08/07 10:41:44;;;;;;;3.60;2.10;;;;;;;36.02;33.47;99433.60;108363;1273;21983;-59
2023/08/07 10:44:23;;;;;;;10.40;2.40;;;;;;;36.32;33.13;99433.57;108405;1273;21987;-59
2023/08/07 10:46:49;;;;;;;6.50;2.30;;;;;;;36.51;32.90;99434.94;108391;1280;21991;-70
2023/08/07 10:49:34;;;;;;;3.60;2.10;;;;;;;36.53;32.15;99436.02;108139;1280;23033;-71
2023/08/07 10:52:14;;;;;;;2.50;1.70;;;;;;;36.44;31.71;99443.47;108098;1283;22159;-60
2023/08/07 10:54:49;;;;;;;4.10;2.10;;;;;;;36.50;32.38;99442.69;108516;1276;23127;-60
2023/08/07 10:57:16;;;;;;;3.70;1.70;;;;;;;36.73;31.84;99434.40;108413;1278;21986;-67
2023/08/07 10:59:49;;;;;;;3.30;2.40;;;;;;;36.90;31.52;99436.89;108617;1274;22169;-60
2023/08/07 11:02:22;;;;;;;4.80;2.00;;;;;;;37.03;31.64;99440.34;108403;1281;21986;-71
2023/08/07 11:04:48;;;;;;;3.70;2.10;;;;;;;37.15;31.87;99450.20;110453;1280;21931;-72
2023/08/07 11:07:23;;;;;;;2.60;1.60;;;;;;;37.26;31.16;99449.46;108807;1270;23073;-72
2023/08/07 11:09:48;;;;;;;2.40;1.90;;;;;;;37.38;31.85;99444.14;108600;1282;22222;-61
2023/08/07 11:12:14;;;;;;;15.20;2.10;;;;;;;37.62;31.69;99440.98;108375;1282;22001;-72
2023/08/07 11:14:39;;;;;;;10.00;2.30;;;;;;;37.87;30.77;99437.39;108533;1276;22022;-60
2023/08/07 11:17:05;;;;;;;4.80;2.20;;;;;;;37.95;30.37;99450.11;108386;1276;21980;-71
2023/08/07 11:19:31;;;;;;;11.90;2.80;;;;;;;37.79;30.84;99455.16;108400;1282;23617;-72
2023/08/07 11:21:57;;;;;;;16.90;2.20;;;;;;;37.64;30.99;99458.67;108423;1278;23612;-72